Time;durP1;ratioP1;P1;durP2;ratioP2;P2;SDS_P1;SDS_P2;PMS_P1;PMS_P2;Temp;Humidity;BMP_temperature;BMP_pressure;BME280_temperature;BME280_humidity;BME280_pressure;Samples;Min_cycle;Max_cycle;Signal;HPM_P1;HPM_P2
2024/01/26 00:00:04;;;;;;;2.60;2.40;;;11.40;66.80;;;;;;20817;6706;305503;-75
2024/01/26 00:02:39;;;;;;;2.10;1.87;;;11.40;66.70;;;;;;20950;6724;117419;-74
2024/01/26 00:05:15;;;;;;;2.10;2.00;;;11.40;66.30;;;;;;21008;6715;118197;-75
2024/01/26 00:07:50;;;;;;;3.35;3.10;;;11.20;66.70;;;;;;20709;6745;308171;-75
2024/01/26 00:10:26;;;;;;;3.80;3.03;;;11.30;66.30;;;;;;20946;6730;117248;-76
2024/01/26 00:13:02;;;;;;;4.03;3.83;;;11.40;65.30;;;;;;20764;6715;337512;-75
2024/01/26 00:15:40;;;;;;;4.30;3.90;;;11.40;65.20;;;;;;20947;6730;117217;-76
2024/01/26 00:18:15;;;;;;;4.82;4.35;;;11.30;65.10;;;;;;20739;6730;334615;-76
2024/01/26 00:20:51;;;;;;;4.33;4.00;;;11.40;64.90;;;;;;20939;6734;117367;-76
2024/01/26 00:23:28;;;;;;;5.50;5.00;;;11.30;65.00;;;;;;20844;6747;117111;-76
2024/01/26 00:26:03;;;;;;;4.77;4.47;;;11.00;65.60;;;;;;20917;6745;117121;-75
2024/01/26 00:28:38;;;;;;;4.63;4.33;;;10.80;66.50;;;;;;20954;6730;119577;-75
2024/01/26 00:31:17;;;;;;;4.90;4.60;;;10.70;67.10;;;;;;20920;6745;119481;-76
2024/01/26 00:33:53;;;;;;;5.00;4.70;;;10.60;67.80;;;;;;20716;6713;335993;-76
2024/01/26 00:36:28;;;;;;;5.10;4.80;;;10.80;67.60;;;;;;20723;6730;306431;-76
2024/01/26 00:39:04;;;;;;;4.33;4.03;;;11.20;66.40;;;;;;21005;6718;117053;-75
2024/01/26 00:41:39;;;;;;;5.80;5.40;;;11.20;65.90;;;;;;20775;6721;305488;-76
2024/01/26 00:44:15;;;;;;;6.03;5.62;;;11.30;65.70;;;;;;20681;6722;279380;-75
2024/01/26 00:46:50;;;;;;;4.63;4.27;;;11.50;64.50;;;;;;20983;6718;120236;-78
2024/01/26 00:49:27;;;;;;;5.23;4.93;;;11.50;64.40;;;;;;20792;6717;309933;-75
2024/01/26 00:52:03;;;;;;;5.00;4.70;;;11.50;64.30;;;;;;20960;6729;120011;-75
2024/01/26 00:54:38;;;;;;;4.13;3.80;;;11.40;64.50;;;;;;20780;6732;127253;-76
2024/01/26 00:57:14;;;;;;;5.67;4.03;;;11.10;65.10;;;;;;20968;6730;119566;-75
2024/01/26 00:59:49;;;;;;;3.80;3.60;;;10.90;65.90;;;;;;20934;6747;117090;-76
2024/01/26 01:02:25;;;;;;;4.17;3.60;;;10.70;66.60;;;;;;21054;6702;116891;-75
2024/01/26 01:05:06;;;;;;;4.60;4.30;;;10.80;66.90;;;;;;20656;6702;277944;-75
2024/01/26 01:07:37;;;;;;;4.90;4.50;;;10.80;66.90;;;;;;20787;6700;301921;-75
2024/01/26 01:10:13;;;;;;;4.10;3.80;;;11.20;65.60;;;;;;21047;6700;116910;-74
2024/01/26 01:12:49;;;;;;;4.60;4.30;;;11.20;65.30;;;;;;20815;6700;306966;-76
2024/01/26 01:15:23;;;;;;;3.93;3.73;;;11.20;64.90;;;;;;20798;6715;276223;-75
2024/01/26 01:18:00;;;;;;;4.03;3.83;;;11.50;64.50;;;;;;20802;6715;276122;-75
2024/01/26 01:20:35;;;;;;;3.83;3.60;;;11.70;63.40;;;;;;20780;6715;334862;-78
2024/01/26 01:23:12;;;;;;;3.40;3.20;;;11.80;62.60;;;;;;20728;6724;278490;-74
2024/01/26 01:25:47;;;;;;;2.60;2.50;;;11.90;61.90;;;;;;21051;6700;118891;-75
2024/01/26 01:28:23;;;;;;;2.90;2.70;;;11.70;62.10;;;;;;21060;6700;117260;-75
2024/01/26 01:30:58;;;;;;;3.22;3.03;;;11.30;63.00;;;;;;20830;6700;307469;-75
2024/01/26 01:33:34;;;;;;;2.50;2.40;;;11.20;63.20;;;;;;20988;6700;116797;-77
2024/01/26 01:36:10;;;;;;;3.20;3.00;;;11.10;63.40;;;;;;20781;6720;304800;-76
2024/01/26 01:38:46;;;;;;;2.63;2.43;;;11.10;63.40;;;;;;20948;6730;117561;-75
2024/01/26 01:41:22;;;;;;;1.90;1.80;;;11.00;63.60;;;;;;20932;6750;119480;-75
2024/01/26 01:43:57;;;;;;;2.90;2.70;;;10.70;64.40;;;;;;20619;6747;279625;-75
2024/01/26 01:46:34;;;;;;;2.73;2.53;;;10.90;65.00;;;;;;20885;6745;120537;-77
2024/01/26 01:49:09;;;;;;;2.50;2.30;;;10.80;65.00;;;;;;21012;6730;117184;-77
2024/01/26 01:51:45;;;;;;;2.60;2.40;;;10.60;65.50;;;;;;21004;6717;117515;-74
2024/01/26 01:54:21;;;;;;;2.93;2.73;;;10.50;66.20;;;;;;20650;6733;328513;-74
2024/01/26 01:56:57;;;;;;;2.90;2.70;;;11.00;65.50;;;;;;20734;6730;335403;-75
2024/01/26 01:59:34;;;;;;;2.63;2.53;;;11.00;64.90;;;;;;20974;6744;117006;-75
2024/01/26 02:02:13;;;;;;;2.70;2.50;;;10.90;64.60;;;;;;20967;6729;119377;-75
2024/01/26 02:04:45;;;;;;;2.80;2.60;;;10.80;65.30;;;;;;20711;6747;117174;-74
2024/01/26 02:07:14;;;;;;;3.70;3.50;;;10.50;65.80;;;;;;20799;6715;304690;-75
2024/01/26 02:09:39;;;;;;;3.80;3.60;;;10.70;65.90;;;;;;20840;6756;333923;-74
2024/01/26 02:12:05;;;;;;;3.50;3.20;;;11.00;64.90;;;;;;21013;6771;117020;-74
2024/01/26 02:14:31;;;;;;;3.73;3.43;;;11.00;64.60;;;;;;20671;6771;336187;-75
2024/01/26 02:16:56;;;;;;;3.80;3.53;;;11.00;64.40;;;;;;20687;6805;306844;-75
2024/01/26 02:19:23;;;;;;;3.27;3.00;;;11.20;63.70;;;;;;20900;6805;119717;-75
2024/01/26 02:21:48;;;;;;;3.70;3.50;;;11.20;63.70;;;;;;20684;6805;335919;-75
2024/01/26 02:24:14;;;;;;;3.37;3.17;;;11.20;63.70;;;;;;20900;6805;117520;-75
2024/01/26 02:26:39;;;;;;;3.60;3.40;;;11.10;63.70;;;;;;20672;6805;290760;-75
2024/01/26 02:29:05;;;;;;;2.93;2.80;;;11.10;63.70;;;;;;20909;6805;120024;-75
2024/01/26 02:31:30;;;;;;;3.50;3.20;;;11.10;63.90;;;;;;20698;6805;277859;-75
2024/01/26 02:33:58;;;;;;;3.57;3.30;;;11.30;63.10;;;;;;20692;6804;307734;-75
2024/01/26 02:36:23;;;;;;;3.40;3.10;;;11.30;63.10;;;;;;20691;6805;307654;-75
2024/01/26 02:38:49;;;;;;;3.67;3.37;;;11.50;62.60;;;;;;20672;6805;326912;-75
2024/01/26 02:41:15;;;;;;;2.70;2.60;;;11.60;62.00;;;;;;20906;6805;120125;-74
2024/01/26 02:43:42;;;;;;;3.07;2.87;;;11.40;62.10;;;;;;20688;6805;306473;-75
2024/01/26 02:46:08;;;;;;;2.93;2.83;;;11.40;62.50;;;;;;20688;6805;308800;-75
2024/01/26 02:48:33;;;;;;;2.73;2.53;;;11.60;62.10;;;;;;20825;6815;117256;-77
2024/01/26 02:50:59;;;;;;;2.60;2.50;;;11.40;62.30;;;;;;20693;6800;310273;-75
2024/01/26 02:53:26;;;;;;;2.83;2.72;;;11.40;62.50;;;;;;20664;6815;277966;-75
2024/01/26 02:55:51;;;;;;;2.30;2.20;;;11.40;62.30;;;;;;20917;6800;119846;-75
2024/01/26 02:58:18;;;;;;;2.80;2.60;;;11.40;62.30;;;;;;20656;6815;316731;-75
2024/01/26 03:00:45;;;;;;;2.23;2.13;;;11.40;62.30;;;;;;20670;6805;276521;-75
2024/01/26 03:03:11;;;;;;;1.97;1.87;;;11.40;61.90;;;;;;20892;6805;118326;-75
2024/01/26 03:05:37;;;;;;;2.50;2.40;;;11.40;61.80;;;;;;20680;6805;294880;-74
2024/01/26 03:08:02;;;;;;;2.60;2.50;;;11.40;62.00;;;;;;20693;6803;307180;-75
2024/01/26 03:10:28;;;;;;;2.70;2.37;;;11.60;61.40;;;;;;20645;6815;307021;-76
2024/01/26 03:12:54;;;;;;;1.97;1.87;;;11.70;60.90;;;;;;20691;6804;276980;-75
2024/01/26 03:15:21;;;;;;;2.33;2.13;;;11.80;60.50;;;;;;20684;6804;318476;-75
2024/01/26 03:17:46;;;;;;;2.23;2.10;;;11.90;60.10;;;;;;20690;6804;308768;-74
2024/01/26 03:20:13;;;;;;;2.20;2.10;;;12.00;59.60;;;;;;20693;6804;294427;-75
2024/01/26 03:22:47;;;;;;;2.33;2.23;;;11.70;60.00;;;;;;20884;6804;117054;-75
2024/01/26 03:25:12;;;;;;;2.30;2.10;;;11.80;60.00;;;;;;20693;6804;306536;-75
2024/01/26 03:27:37;;;;;;;2.00;1.90;;;11.70;60.10;;;;;;20794;6591;336185;-76
2024/01/26 03:30:14;;;;;;;1.97;1.87;;;11.90;59.60;;;;;;20791;6717;278821;-76
2024/01/26 03:32:49;;;;;;;2.65;2.00;;;11.90;59.60;;;;;;20759;6722;334963;-76
2024/01/26 03:35:26;;;;;;;1.67;1.60;;;12.00;59.30;;;;;;21055;6704;116767;-78
2024/01/26 03:38:03;;;;;;;1.50;1.50;;;11.40;60.60;;;;;;21051;6702;116753;-78
2024/01/26 03:40:40;;;;;;;1.93;1.83;;;11.30;60.40;;;;;;20774;6715;277585;-78
2024/01/26 03:43:16;;;;;;;1.90;1.80;;;11.50;60.30;;;;;;20739;6722;277989;-78
2024/01/26 03:45:52;;;;;;;2.90;1.57;;;11.50;60.30;;;;;;21003;6718;117276;-78
2024/01/26 03:48:28;;;;;;;1.30;1.20;;;11.30;60.40;;;;;;20987;6718;117438;-78
2024/01/26 03:51:05;;;;;;;1.50;1.40;;;11.10;61.40;;;;;;20793;6719;276243;-78
2024/01/26 03:53:40;;;;;;;1.40;1.30;;;11.00;61.30;;;;;;20919;6718;116809;-76
2024/01/26 03:56:16;;;;;;;1.40;1.25;;;11.00;61.50;;;;;;20774;6721;334411;-78
2024/01/26 03:58:53;;;;;;;4.33;1.43;;;11.10;61.30;;;;;;20944;6729;120350;-78
2024/01/26 04:01:27;;;;;;;3.47;1.17;;;11.00;61.50;;;;;;20966;6729;117007;-76
2024/01/26 04:04:04;;;;;;;0.93;0.93;;;10.80;62.10;;;;;;20852;6733;117975;-78
2024/01/26 04:06:40;;;;;;;1.00;1.00;;;10.60;62.70;;;;;;21029;6718;117477;-76
2024/01/26 04:09:15;;;;;;;1.00;1.00;;;10.40;63.30;;;;;;20834;6704;305013;-76
2024/01/26 04:11:51;;;;;;;3.23;0.80;;;10.50;63.00;;;;;;20982;6726;117092;-76
2024/01/26 04:14:27;;;;;;;0.93;0.93;;;10.80;62.40;;;;;;20621;6726;336305;-74
2024/01/26 04:17:03;;;;;;;0.80;0.80;;;10.80;62.40;;;;;;20967;6724;116905;-75
2024/01/26 04:19:39;;;;;;;0.47;0.47;;;10.60;62.70;;;;;;20969;6732;117758;-75
2024/01/26 04:22:15;;;;;;;1.03;0.73;;;10.50;62.60;;;;;;20772;6725;277821;-75
2024/01/26 04:24:51;;;;;;;1.00;0.80;;;11.00;61.20;;;;;;20589;6726;279995;-75
2024/01/26 04:27:27;;;;;;;0.90;0.90;;;11.00;61.20;;;;;;20808;6711;292094;-76
2024/01/26 04:30:05;;;;;;;1.10;0.80;;;11.50;59.70;;;;;;20819;6711;274151;-75
2024/01/26 04:32:40;;;;;;;1.33;0.70;;;11.50;59.70;;;;;;20979;6711;117581;-75
2024/01/26 04:35:16;;;;;;;0.73;0.73;;;11.30;59.90;;;;;;20805;6711;304132;-77
2024/01/26 04:37:52;;;;;;;1.70;0.90;;;11.30;59.90;;;;;;20813;6711;304704;-76
2024/01/26 04:40:28;;;;;;;1.00;0.90;;;11.50;59.50;;;;;;20800;6711;274968;-77
2024/01/26 04:43:05;;;;;;;1.70;1.00;;;11.40;59.30;;;;;;20896;6711;118664;-77
2024/01/26 04:45:40;;;;;;;0.60;0.60;;;11.40;59.30;;;;;;20869;6726;120888;-75
2024/01/26 04:48:17;;;;;;;0.90;0.90;;;11.10;60.10;;;;;;20968;6726;117075;-75
2024/01/26 04:50:53;;;;;;;1.03;0.90;;;10.80;60.90;;;;;;20784;6714;297234;-75
2024/01/26 04:53:28;;;;;;;0.87;0.87;;;10.90;60.90;;;;;;20746;6714;277318;-75
2024/01/26 04:56:04;;;;;;;0.90;0.90;;;11.10;60.10;;;;;;20788;6717;333981;-76
2024/01/26 04:58:39;;;;;;;1.03;0.93;;;11.30;59.50;;;;;;20956;6729;118107;-77
2024/01/26 05:01:15;;;;;;;0.85;0.80;;;11.20;59.80;;;;;;20763;6730;334824;-76
2024/01/26 05:03:51;;;;;;;1.12;0.90;;;11.20;59.80;;;;;;20707;6715;276546;-75
2024/01/26 05:06:26;;;;;;;0.93;0.83;;;11.40;59.30;;;;;;21006;6715;117405;-76
2024/01/26 05:09:02;;;;;;;0.70;0.70;;;11.20;59.50;;;;;;20956;6735;117361;-75
2024/01/26 05:11:37;;;;;;;0.80;0.70;;;10.90;60.30;;;;;;20813;6712;284557;-75
2024/01/26 05:14:13;;;;;;;0.90;0.90;;;11.00;60.30;;;;;;20870;6712;117502;-76
2024/01/26 05:16:49;;;;;;;2.10;0.60;;;10.90;60.40;;;;;;21001;6712;116744;-76
2024/01/26 05:19:24;;;;;;;1.80;0.80;;;10.70;60.90;;;;;;20788;6717;306491;-76
2024/01/26 05:22:00;;;;;;;3.07;0.77;;;10.80;60.80;;;;;;20996;6720;117539;-76
2024/01/26 05:24:36;;;;;;;1.17;0.77;;;10.60;61.30;;;;;;20834;6717;117015;-75
2024/01/26 05:27:12;;;;;;;1.17;0.77;;;10.60;61.30;;;;;;21039;6718;117059;-75
2024/01/26 05:29:47;;;;;;;0.83;0.83;;;10.40;61.90;;;;;;21010;6718;117289;-73
2024/01/26 05:32:23;;;;;;;0.80;0.80;;;10.20;62.50;;;;;;20743;6733;337309;-75
2024/01/26 05:34:58;;;;;;;1.08;0.80;;;10.40;62.10;;;;;;20539;6736;307519;-75
2024/01/26 05:37:34;;;;;;;0.80;0.80;;;10.80;61.10;;;;;;21048;6704;117315;-75
2024/01/26 05:40:10;;;;;;;1.98;0.80;;;10.80;61.00;;;;;;20839;6702;290539;-76
2024/01/26 05:42:45;;;;;;;1.63;0.80;;;11.00;60.70;;;;;;20979;6715;117132;-74
2024/01/26 05:45:21;;;;;;;0.47;0.47;;;10.90;60.80;;;;;;21043;6703;116802;-74
2024/01/26 05:47:59;;;;;;;1.23;0.70;;;10.50;61.70;;;;;;20996;6718;116894;-74
2024/01/26 05:50:35;;;;;;;1.00;0.90;;;10.50;61.70;;;;;;20988;6718;117419;-76
2024/01/26 05:53:10;;;;;;;0.87;0.80;;;10.40;62.30;;;;;;20686;6733;337855;-75
2024/01/26 05:55:46;;;;;;;0.77;0.77;;;10.60;61.80;;;;;;20981;6729;117931;-75
2024/01/26 05:58:21;;;;;;;1.33;0.80;;;10.60;61.50;;;;;;20985;6729;118065;-76
2024/01/26 06:00:57;;;;;;;0.80;0.80;;;10.70;61.50;;;;;;20762;6718;307587;-75
2024/01/26 06:03:33;;;;;;;1.23;0.70;;;10.70;61.50;;;;;;20940;6715;116898;-77
2024/01/26 06:06:11;;;;;;;0.77;0.77;;;10.80;60.90;;;;;;20802;6706;336282;-76
2024/01/26 06:08:48;;;;;;;0.60;0.60;;;10.80;60.90;;;;;;21018;6706;117301;-77
2024/01/26 06:11:25;;;;;;;1.13;0.70;;;10.70;60.80;;;;;;21029;6706;116976;-76
2024/01/26 06:14:00;;;;;;;0.80;0.80;;;10.30;61.40;;;;;;20882;6706;117425;-76
2024/01/26 06:16:35;;;;;;;0.93;0.93;;;10.30;61.80;;;;;;20969;6721;118888;-76
2024/01/26 06:19:12;;;;;;;0.63;0.63;;;10.10;62.20;;;;;;21035;6706;117582;-76
2024/01/26 06:21:48;;;;;;;0.67;0.67;;;9.90;63.70;;;;;;21032;6706;117316;-75
2024/01/26 06:24:25;;;;;;;1.20;0.73;;;9.80;64.10;;;;;;20838;6706;116736;-76
2024/01/26 06:27:02;;;;;;;1.10;1.00;;;9.80;64.60;;;;;;20699;6735;299512;-75
2024/01/26 06:29:41;;;;;;;0.63;0.63;;;10.00;63.10;;;;;;20956;6735;117134;-78
2024/01/26 06:32:19;;;;;;;0.73;0.73;;;10.30;62.50;;;;;;20763;6724;276913;-77
2024/01/26 06:34:53;;;;;;;0.90;0.80;;;10.30;62.50;;;;;;20547;6726;336314;-78
2024/01/26 06:37:30;;;;;;;1.10;1.00;;;10.60;61.30;;;;;;20768;6721;275567;-77
2024/01/26 06:40:05;;;;;;;1.12;1.00;;;10.90;60.30;;;;;;20736;6736;275695;-78
2024/01/26 06:42:41;;;;;;;0.80;0.80;;;11.10;59.70;;;;;;20762;6721;306382;-77
2024/01/26 06:45:17;;;;;;;1.33;0.90;;;11.30;59.10;;;;;;21035;6709;118341;-76
2024/01/26 06:47:52;;;;;;;1.10;1.00;;;11.20;59.50;;;;;;20982;6724;116820;-77
2024/01/26 06:50:28;;;;;;;0.70;0.70;;;10.80;60.20;;;;;;20801;6709;334317;-78
2024/01/26 06:53:03;;;;;;;0.75;0.73;;;10.90;60.30;;;;;;20745;6721;277275;-77
2024/01/26 06:55:40;;;;;;;0.90;0.70;;;11.40;59.00;;;;;;20787;6721;304972;-77
2024/01/26 06:58:17;;;;;;;0.77;0.73;;;11.40;59.00;;;;;;20963;6731;120044;-77
2024/01/26 07:00:53;;;;;;;0.70;0.70;;;11.30;59.30;;;;;;20979;6719;118695;-76
2024/01/26 07:03:28;;;;;;;2.37;0.73;;;11.00;60.00;;;;;;20932;6721;116983;-76
2024/01/26 07:06:04;;;;;;;0.80;0.80;;;10.80;60.80;;;;;;21002;6717;117892;-77
2024/01/26 07:08:39;;;;;;;0.80;0.80;;;10.60;61.40;;;;;;20729;6730;335062;-76
2024/01/26 07:11:17;;;;;;;0.90;0.90;;;10.70;61.00;;;;;;20827;6715;292948;-77
2024/01/26 07:13:50;;;;;;;0.60;0.60;;;11.10;60.10;;;;;;20926;6715;120602;-77
2024/01/26 07:16:26;;;;;;;0.60;0.60;;;11.10;60.00;;;;;;21046;6705;117022;-77
2024/01/26 07:19:02;;;;;;;0.80;0.80;;;10.90;60.50;;;;;;20833;6705;304483;-77
2024/01/26 07:21:38;;;;;;;0.83;0.83;;;11.00;60.00;;;;;;21038;6705;116399;-77
2024/01/26 07:24:15;;;;;;;0.77;0.77;;;11.10;60.20;;;;;;20684;6705;336694;-78
2024/01/26 07:26:51;;;;;;;1.02;0.80;;;11.20;59.70;;;;;;20809;6705;336478;-77
2024/01/26 07:29:27;;;;;;;0.90;0.90;;;11.50;59.00;;;;;;21048;6705;118102;-77
2024/01/26 07:32:03;;;;;;;2.53;1.00;;;11.50;59.00;;;;;;21035;6705;116897;-77
2024/01/26 07:34:38;;;;;;;5.37;5.00;;;11.30;59.60;;;;;;20623;6705;308214;-77
2024/01/26 07:37:14;;;;;;;5.80;5.30;;;11.40;59.20;;;;;;21034;6705;116745;-77
2024/01/26 07:39:50;;;;;;;3.50;3.20;;;11.50;58.90;;;;;;20831;6705;305393;-77
2024/01/26 07:42:26;;;;;;;1.70;1.60;;;11.50;58.90;;;;;;21034;6705;117342;-78
2024/01/26 07:45:02;;;;;;;1.83;1.73;;;11.50;59.10;;;;;;20605;6705;336697;-78
2024/01/26 07:47:37;;;;;;;1.10;1.10;;;11.60;58.70;;;;;;21043;6705;116970;-78
2024/01/26 07:50:14;;;;;;;1.97;1.87;;;11.50;58.80;;;;;;21040;6705;119022;-77
2024/01/26 07:52:50;;;;;;;2.80;2.60;;;11.30;59.40;;;;;;20790;6705;307030;-77
2024/01/26 07:55:28;;;;;;;1.98;1.90;;;11.70;58.30;;;;;;20824;6704;330937;-78
2024/01/26 07:58:04;;;;;;;1.60;1.50;;;11.70;58.50;;;;;;21039;6705;117305;-78
2024/01/26 08:00:39;;;;;;;1.23;1.23;;;11.70;58.50;;;;;;21031;6705;120035;-78
2024/01/26 08:03:16;;;;;;;1.60;1.33;;;11.50;59.10;;;;;;20997;6705;117343;-77
2024/01/26 08:05:56;;;;;;;1.60;1.50;;;11.40;59.90;;;;;;20821;6705;334320;-77
2024/01/26 08:08:30;;;;;;;1.33;1.30;;;11.90;58.50;;;;;;20797;6705;310960;-76
2024/01/26 08:11:05;;;;;;;2.93;2.83;;;11.80;58.40;;;;;;20832;6705;306305;-78
2024/01/26 08:13:41;;;;;;;2.07;1.97;;;12.40;56.90;;;;;;20732;6705;306734;-76
2024/01/26 08:16:18;;;;;;;2.17;1.87;;;12.40;56.90;;;;;;20823;6705;301198;-80
2024/01/26 08:18:54;;;;;;;4.50;2.63;;;12.70;56.10;;;;;;20807;6705;276456;-77
2024/01/26 08:21:30;;;;;;;4.53;3.20;;;12.70;56.10;;;;;;20823;6705;305611;-76
2024/01/26 08:24:06;;;;;;;2.20;2.03;;;12.90;55.70;;;;;;20701;6705;290136;-79
2024/01/26 08:26:42;;;;;;;2.17;2.07;;;12.90;55.70;;;;;;21019;6705;118011;-76
2024/01/26 08:29:21;;;;;;;1.93;1.83;;;12.40;57.10;;;;;;21041;6705;119563;-77
2024/01/26 08:31:54;;;;;;;2.50;2.33;;;12.30;57.00;;;;;;21040;6705;120837;-77
2024/01/26 08:34:30;;;;;;;1.30;1.30;;;12.10;57.90;;;;;;20835;6705;123107;-77
2024/01/26 08:37:05;;;;;;;2.95;1.90;;;11.80;58.50;;;;;;20810;6705;276865;-78
2024/01/26 08:39:44;;;;;;;1.57;1.57;;;12.00;58.30;;;;;;21040;6705;116992;-77
2024/01/26 08:42:19;;;;;;;2.40;1.43;;;12.00;58.40;;;;;;21045;6705;116908;-76
2024/01/26 08:44:58;;;;;;;2.20;1.37;;;11.90;58.90;;;;;;20593;6705;304167;-79
2024/01/26 08:47:31;;;;;;;1.47;1.20;;;12.00;58.60;;;;;;21042;6705;117917;-79
2024/01/26 08:50:10;;;;;;;1.50;1.20;;;12.10;58.70;;;;;;21041;6705;119059;-80
2024/01/26 08:52:42;;;;;;;1.57;1.20;;;12.00;59.10;;;;;;21006;6705;118068;-79
2024/01/26 08:55:18;;;;;;;4.68;1.30;;;11.80;59.40;;;;;;20855;6700;276634;-80
2024/01/26 08:57:54;;;;;;;1.20;1.00;;;12.40;57.90;;;;;;20848;6700;304538;-78
2024/01/26 09:00:29;;;;;;;1.20;0.97;;;12.40;57.90;;;;;;21065;6700;116553;-78
2024/01/26 09:03:05;;;;;;;1.02;0.90;;;12.40;57.90;;;;;;20812;6700;309370;-79
2024/01/26 09:05:42;;;;;;;1.47;1.03;;;12.60;57.60;;;;;;21119;6700;116184;-79
2024/01/26 09:08:18;;;;;;;1.00;1.00;;;12.60;57.90;;;;;;21156;6699;67858;-77
2024/01/26 09:10:57;;;;;;;1.70;1.33;;;12.40;58.40;;;;;;20890;6700;305712;-78
2024/01/26 09:13:30;;;;;;;2.60;1.30;;;12.50;58.00;;;;;;20831;6700;305745;-77
2024/01/26 09:16:06;;;;;;;3.30;1.58;;;12.80;57.10;;;;;;20926;6700;333671;-78
2024/01/26 09:18:42;;;;;;;1.30;1.20;;;13.10;56.60;;;;;;20836;6700;304994;-77
2024/01/26 09:21:17;;;;;;;1.20;1.17;;;13.30;55.90;;;;;;21062;6700;116966;-77
2024/01/26 09:23:53;;;;;;;1.40;1.12;;;13.20;55.70;;;;;;20807;6700;290310;-76
2024/01/26 09:26:28;;;;;;;1.23;1.17;;;13.20;56.00;;;;;;20805;6720;274219;-78
2024/01/26 09:29:08;;;;;;;1.17;1.07;;;13.40;55.80;;;;;;20788;6730;276558;-78
2024/01/26 09:31:41;;;;;;;1.03;1.03;;;13.50;55.30;;;;;;21025;6735;115937;-78
2024/01/26 09:34:16;;;;;;;2.23;2.03;;;13.40;55.80;;;;;;20833;6735;117077;-78
2024/01/26 09:36:52;;;;;;;3.13;2.67;;;13.00;56.50;;;;;;21001;6715;116859;-77
2024/01/26 09:39:27;;;;;;;1.30;1.20;;;12.80;57.30;;;;;;20731;6732;290435;-78
2024/01/26 09:42:05;;;;;;;2.17;0.80;;;12.90;57.10;;;;;;20916;6745;117629;-77
2024/01/26 09:44:39;;;;;;;1.23;1.13;;;12.90;57.40;;;;;;20790;6733;146783;-78
2024/01/26 09:47:15;;;;;;;1.75;1.62;;;12.70;57.70;;;;;;20781;6721;276442;-78
2024/01/26 09:49:58;;;;;;;1.63;1.20;;;12.80;57.30;;;;;;20979;6729;117308;-79
2024/01/26 09:52:37;;;;;;;1.17;1.03;;;12.80;57.60;;;;;;20960;6730;116938;-78
2024/01/26 09:55:10;;;;;;;1.47;1.03;;;12.60;58.10;;;;;;20705;6816;118180;-79
2024/01/26 09:57:46;;;;;;;1.70;1.20;;;12.30;58.90;;;;;;21016;6715;117326;-79
2024/01/26 10:00:21;;;;;;;0.93;0.93;;;12.30;58.90;;;;;;21008;6713;116744;-79
2024/01/26 10:02:57;;;;;;;1.57;1.47;;;12.20;59.30;;;;;;20975;6717;116820;-79
2024/01/26 10:05:33;;;;;;;6.13;3.47;;;12.20;59.60;;;;;;21056;6704;117491;-79
2024/01/26 10:08:08;;;;;;;9.02;8.23;;;12.10;59.90;;;;;;20752;6728;297020;-79
2024/01/26 10:10:45;;;;;;;10.03;9.03;;;12.50;58.70;;;;;;20945;6733;117442;-78
2024/01/26 10:13:20;;;;;;;3.83;3.53;;;12.50;58.70;;;;;;20960;6715;116836;-78
2024/01/26 10:16:08;;;;;;;1.90;1.80;;;12.40;59.20;;;;;;20964;6732;116598;-82
2024/01/26 10:18:43;;;;;;;6.30;5.80;;;12.30;59.10;;;;;;20968;6729;119346;-79
2024/01/26 10:21:20;;;;;;;3.67;3.37;;;12.30;59.30;;;;;;20786;6724;325786;-79
2024/01/26 10:23:54;;;;;;;4.63;4.27;;;12.50;58.40;;;;;;20669;6729;292653;-79
2024/01/26 10:26:30;;;;;;;2.70;2.50;;;12.90;57.40;;;;;;20729;6735;308021;-80
2024/01/26 10:29:06;;;;;;;2.70;2.50;;;13.20;56.60;;;;;;20978;6730;117066;-80
2024/01/26 10:31:41;;;;;;;1.77;1.67;;;13.20;56.90;;;;;;21022;6715;117322;-79
2024/01/26 10:34:17;;;;;;;4.10;3.80;;;13.00;57.40;;;;;;20651;6729;278075;-78
2024/01/26 10:36:52;;;;;;;3.07;2.67;;;13.10;56.90;;;;;;21015;6715;117191;-81
2024/01/26 10:39:29;;;;;;;2.20;2.00;;;13.00;57.10;;;;;;21073;6700;118009;-78
2024/01/26 10:42:05;;;;;;;4.40;4.10;;;12.80;57.50;;;;;;20838;6700;306042;-78
2024/01/26 10:44:42;;;;;;;1.90;1.80;;;12.90;57.70;;;;;;20898;6700;117513;-78
2024/01/26 10:47:17;;;;;;;4.80;4.30;;;12.90;57.20;;;;;;20781;6720;276924;-78
2024/01/26 10:50:01;;;;;;;3.30;3.03;;;13.00;56.80;;;;;;20746;6730;277108;-78
2024/01/26 10:52:38;;;;;;;4.97;4.57;;;13.30;56.30;;;;;;20812;6715;306667;-79
2024/01/26 10:55:18;;;;;;;3.53;3.23;;;13.50;56.10;;;;;;20782;6792;117746;-77
2024/01/26 10:57:54;;;;;;;2.37;2.17;;;13.40;55.90;;;;;;20977;6730;117374;-80
2024/01/26 11:00:29;;;;;;;1.90;1.80;;;13.20;56.70;;;;;;21042;6707;117088;-79
2024/01/26 11:03:05;;;;;;;1.92;1.83;;;13.00;57.50;;;;;;20807;6707;311806;-81
2024/01/26 11:05:40;;;;;;;1.90;1.80;;;13.10;57.00;;;;;;21081;6700;117352;-81
2024/01/26 11:08:22;;;;;;;1.95;1.85;;;13.10;57.20;;;;;;20783;6730;276668;-77
2024/01/26 11:10:55;;;;;;;1.50;1.50;;;13.20;56.80;;;;;;20942;6730;118717;-77
2024/01/26 11:13:30;;;;;;;1.62;1.52;;;13.20;57.00;;;;;;20660;6745;281397;-78
2024/01/26 11:16:06;;;;;;;1.73;1.63;;;13.30;56.60;;;;;;20793;6719;276198;-79
2024/01/26 11:18:41;;;;;;;1.83;1.73;;;13.50;56.20;;;;;;21044;6704;117391;-79
2024/01/26 11:21:19;;;;;;;1.80;1.70;;;13.50;56.60;;;;;;20986;6722;117578;-79
2024/01/26 11:23:54;;;;;;;2.40;1.70;;;13.30;57.20;;;;;;20688;6722;278050;-78
2024/01/26 11:26:30;;;;;;;1.60;1.50;;;13.40;56.80;;;;;;20686;6793;336111;-79
2024/01/26 11:29:12;;;;;;;1.80;1.67;;;13.70;56.20;;;;;;20740;6733;308419;-75
2024/01/26 11:31:52;;;;;;;1.70;1.60;;;13.90;55.60;;;;;;20738;6733;336901;-78
2024/01/26 11:34:26;;;;;;;1.50;1.40;;;14.10;55.20;;;;;;20800;6733;116889;-77
2024/01/26 11:37:08;;;;;;;1.33;1.33;;;13.90;55.40;;;;;;20892;6736;118009;-77
2024/01/26 11:39:44;;;;;;;2.43;1.70;;;13.50;56.20;;;;;;20775;6718;305006;-78
2024/01/26 11:42:20;;;;;;;1.20;1.20;;;13.50;56.10;;;;;;21051;6703;117071;-77
2024/01/26 11:45:11;;;;;;;1.57;1.47;;;13.40;56.40;;;;;;20742;6727;122459;-77
2024/01/26 11:47:45;;;;;;;1.75;1.60;;;13.20;57.00;;;;;;20798;6717;305401;-77
2024/01/26 11:50:23;;;;;;;1.52;1.42;;;13.30;57.60;;;;;;20738;6733;295693;-76
2024/01/26 11:52:56;;;;;;;1.10;1.00;;;13.50;56.30;;;;;;20922;6733;119207;-77
2024/01/26 11:55:31;;;;;;;1.07;1.07;;;13.50;56.50;;;;;;20995;6733;116938;-79
2024/01/26 11:58:07;;;;;;;2.43;1.30;;;13.00;57.50;;;;;;20941;6737;117073;-77
2024/01/26 12:00:44;;;;;;;1.60;1.50;;;13.00;57.50;;;;;;20719;6736;305250;-78
2024/01/26 12:03:20;;;;;;;1.60;1.50;;;13.50;56.50;;;;;;20674;6736;308184;-77
2024/01/26 12:05:57;;;;;;;1.20;1.20;;;13.50;56.50;;;;;;20944;6733;116923;-77
2024/01/26 12:08:33;;;;;;;1.23;1.23;;;13.50;56.60;;;;;;20932;6733;117157;-78
2024/01/26 12:11:09;;;;;;;1.50;1.40;;;13.10;57.80;;;;;;20891;6745;118147;-77
2024/01/26 12:13:44;;;;;;;1.60;1.50;;;13.00;57.70;;;;;;20633;6744;310054;-77
2024/01/26 12:16:20;;;;;;;1.20;1.20;;;13.20;57.40;;;;;;20969;6730;116835;-78
2024/01/26 12:18:59;;;;;;;1.25;1.20;;;13.20;57.50;;;;;;20740;6730;305426;-76
2024/01/26 12:21:33;;;;;;;1.50;1.50;;;13.40;57.10;;;;;;20757;6730;306057;-79
2024/01/26 12:24:08;;;;;;;1.37;1.30;;;13.70;56.50;;;;;;20864;6730;116820;-78
2024/01/26 12:26:44;;;;;;;1.40;1.30;;;13.60;56.60;;;;;;20727;6730;305650;-78
2024/01/26 12:29:20;;;;;;;2.50;1.90;;;13.70;56.30;;;;;;20776;6718;278026;-78
2024/01/26 12:32:04;;;;;;;1.50;1.40;;;14.10;55.30;;;;;;20776;6718;277269;-76
2024/01/26 12:34:39;;;;;;;1.33;1.33;;;14.10;55.30;;;;;;20839;6719;117495;-77
2024/01/26 12:37:14;;;;;;;1.30;1.20;;;13.90;55.70;;;;;;20749;6730;307125;-78
2024/01/26 12:39:50;;;;;;;1.47;1.37;;;13.90;55.80;;;;;;20928;6747;116991;-78
2024/01/26 12:42:25;;;;;;;1.30;1.23;;;13.80;56.00;;;;;;20979;6746;120646;-79
2024/01/26 12:45:01;;;;;;;1.50;1.40;;;13.60;56.70;;;;;;20493;6746;309053;-77
2024/01/26 12:47:37;;;;;;;1.13;1.13;;;13.60;56.50;;;;;;20951;6739;116756;-77
2024/01/26 12:50:12;;;;;;;2.00;1.37;;;13.60;56.70;;;;;;20793;6720;307131;-78
2024/01/26 12:52:50;;;;;;;1.50;1.40;;;13.70;56.50;;;;;;20744;6730;277166;-78
2024/01/26 12:55:26;;;;;;;1.50;1.40;;;13.90;55.90;;;;;;20909;6747;119460;-77
2024/01/26 12:58:00;;;;;;;1.77;1.27;;;13.60;56.80;;;;;;20920;6745;119271;-78
2024/01/26 13:00:35;;;;;;;1.00;1.00;;;13.60;56.80;;;;;;20953;6733;120439;-78
2024/01/26 13:03:11;;;;;;;1.60;1.50;;;13.40;57.20;;;;;;20725;6722;337502;-77
2024/01/26 13:05:49;;;;;;;1.00;1.00;;;13.40;56.90;;;;;;20942;6742;118021;-78
2024/01/26 13:08:22;;;;;;;0.90;0.90;;;13.40;57.10;;;;;;20955;6738;117056;-79
2024/01/26 13:10:58;;;;;;;1.20;1.20;;;13.20;57.40;;;;;;20719;6735;305908;-76
2024/01/26 13:13:33;;;;;;;0.90;0.90;;;13.30;57.60;;;;;;20888;6736;116242;-77
2024/01/26 13:16:10;;;;;;;1.20;1.20;;;13.10;58.10;;;;;;20941;6736;116898;-77